Time;durP1;ratioP1;P1;durP2;ratioP2;P2;SDS_P1;SDS_P2;PMS_P1;PMS_P2;Temp;Humidity;BMP_temperature;BMP_pressure;BME280_temperature;BME280_humidity;BME280_pressure;Samples;Min_cycle;Max_cycle;Signal;HPM_P1;HPM_P2
2023/10/18 00:02:49;;;;;;;24.75;15.18;;;8.10;99.90;;;;;;5106613;28;20016;-66
2023/10/18 00:05:17;;;;;;;26.45;17.20;;;8.20;99.90;;;;;;5104159;28;20376;-66
2023/10/18 00:07:43;;;;;;;22.55;15.77;;;8.20;99.90;;;;;;5103081;28;20030;-65
2023/10/18 00:10:09;;;;;;;23.73;16.33;;;8.10;99.90;;;;;;5103886;27;20023;-66
2023/10/18 00:12:35;;;;;;;23.20;16.05;;;8.10;99.90;;;;;;5103956;27;20055;-65
2023/10/18 00:15:01;;;;;;;26.15;16.48;;;8.10;99.90;;;;;;5102689;28;20086;-65
2023/10/18 00:17:27;;;;;;;23.10;16.55;;;8.10;99.90;;;;;;5100156;28;20383;-65
2023/10/18 00:19:53;;;;;;;24.33;16.40;;;8.10;99.90;;;;;;5103824;28;20093;-65
2023/10/18 00:22:19;;;;;;;24.23;16.55;;;8.10;99.90;;;;;;5103071;28;20020;-65
2023/10/18 00:24:45;;;;;;;22.67;16.52;;;8.10;99.90;;;;;;5103145;28;20486;-64
2023/10/18 00:27:10;;;;;;;25.48;17.40;;;8.10;99.90;;;;;;5105058;28;20103;-65
2023/10/18 00:29:36;;;;;;;26.25;17.48;;;8.10;99.90;;;;;;5106108;28;20111;-66
2023/10/18 00:32:03;;;;;;;28.05;18.25;;;8.10;99.90;;;;;;5104893;28;20580;-65
2023/10/18 00:34:29;;;;;;;25.40;16.98;;;8.10;99.90;;;;;;5104217;28;20054;-65
2023/10/18 00:36:55;;;;;;;27.48;18.17;;;8.00;99.90;;;;;;5105817;28;20067;-66
2023/10/18 00:39:27;;;;;;;25.92;17.58;;;8.10;99.90;;;;;;5102627;28;20051;-66
2023/10/18 00:41:54;;;;;;;;;;;8.10;99.90;;;;;;5104473;28;20026;-64
2023/10/18 00:44:23;;;;;;;27.88;17.60;;;8.00;99.90;;;;;;5105203;28;19908;-65
2023/10/18 00:46:52;;;;;;;25.60;17.73;;;8.00;99.90;;;;;;5081797;28;20020;-65
2023/10/18 00:49:20;;;;;;;29.65;19.42;;;8.00;99.90;;;;;;5082726;28;20063;-65
2023/10/18 00:51:47;;;;;;;26.05;17.35;;;8.00;99.90;;;;;;5082732;28;20063;-67
2023/10/18 00:54:14;;;;;;;26.65;17.15;;;8.00;99.90;;;;;;5085439;28;20149;-65
2023/10/18 00:56:43;;;;;;;26.58;18.00;;;8.00;99.90;;;;;;5087010;28;20024;-66
2023/10/18 00:59:26;;;;;;;26.17;17.90;;;8.00;99.90;;;;;;5086006;28;20103;-64
2023/10/18 01:02:11;;;;;;;27.35;18.42;;;7.90;99.90;;;;;;5086326;28;20020;-65
2023/10/18 01:04:37;;;;;;;25.27;17.48;;;8.00;99.90;;;;;;5087107;28;20473;-65
2023/10/18 01:07:21;;;;;;;27.60;19.38;;;7.90;99.90;;;;;;5085393;28;20086;-65
2023/10/18 01:09:49;;;;;;;29.10;19.25;;;7.90;99.90;;;;;;5085442;28;20013;-65
2023/10/18 01:12:18;;;;;;;28.85;18.55;;;7.90;99.90;;;;;;5084716;28;20053;-65
2023/10/18 01:14:44;;;;;;;27.50;19.60;;;7.90;99.90;;;;;;5085023;28;20020;-66
2023/10/18 01:17:10;;;;;;;28.15;19.58;;;7.90;99.90;;;;;;5085339;28;20036;-65
2023/10/18 01:19:36;;;;;;;29.60;19.52;;;7.90;99.90;;;;;;5086643;28;20134;-65
2023/10/18 01:22:04;;;;;;;29.65;20.45;;;7.90;99.90;;;;;;5084539;28;20064;-65
2023/10/18 01:24:34;;;;;;;26.63;18.95;;;7.90;99.90;;;;;;5085156;28;20420;-64
2023/10/18 01:27:04;;;;;;;29.00;20.48;;;7.90;99.90;;;;;;5086385;28;20020;-65
2023/10/18 01:29:30;;;;;;;28.25;19.50;;;7.90;99.90;;;;;;5085184;28;20048;-65
2023/10/18 01:31:56;;;;;;;29.35;20.52;;;7.80;99.90;;;;;;5084312;28;20024;-65
2023/10/18 01:34:23;;;;;;;32.10;21.65;;;7.90;99.90;;;;;;5083572;28;20390;-64
2023/10/18 01:36:49;;;;;;;28.63;20.25;;;7.80;99.90;;;;;;5084895;28;20420;-66
2023/10/18 01:39:21;;;;;;;29.48;20.27;;;7.90;99.90;;;;;;5084391;28;20042;-65
2023/10/18 01:41:51;;;;;;;30.88;20.30;;;7.80;99.90;;;;;;5084685;28;20021;-65
2023/10/18 01:44:35;;;;;;;30.48;20.17;;;7.90;99.90;;;;;;5084034;28;20496;-65
2023/10/18 01:47:06;;;;;;;29.35;20.75;;;7.80;99.90;;;;;;5083930;28;20052;-65
2023/10/18 01:49:32;;;;;;;30.38;20.30;;;7.80;99.90;;;;;;5084785;28;20111;-64
2023/10/18 01:51:57;;;;;;;27.48;19.92;;;7.80;99.90;;;;;;5084392;28;20484;-65
2023/10/18 01:54:26;;;;;;;28.80;20.52;;;7.80;99.90;;;;;;5084039;28;20107;-65
2023/10/18 01:56:57;;;;;;;29.80;20.23;;;7.80;99.90;;;;;;5084347;28;20032;-64
2023/10/18 01:59:27;;;;;;;29.65;21.60;;;7.80;99.90;;;;;;5085801;28;20503;-66
2023/10/18 02:01:53;;;;;;;30.98;20.90;;;7.80;99.90;;;;;;5084866;28;20075;-65
2023/10/18 02:04:25;;;;;;;29.77;21.40;;;7.80;99.90;;;;;;5083736;28;20098;-65
2023/10/18 02:06:57;;;;;;;;;;;7.80;99.90;;;;;;5084787;28;20031;-65
2023/10/18 02:09:26;;;;;;;30.98;20.20;;;7.80;99.90;;;;;;5085625;28;19938;-65
2023/10/18 02:11:51;;;;;;;30.58;21.00;;;7.70;99.90;;;;;;5085234;28;20518;-64
2023/10/18 02:14:17;;;;;;;30.30;20.92;;;7.70;99.90;;;;;;5083492;28;20025;-65
2023/10/18 02:16:45;;;;;;;30.73;20.02;;;7.80;99.90;;;;;;5085255;28;20035;-65
2023/10/18 02:19:13;;;;;;;29.42;20.65;;;7.80;99.90;;;;;;5084551;28;20024;-64
2023/10/18 02:21:40;;;;;;;29.55;20.10;;;7.80;99.90;;;;;;5083067;28;20389;-65
2023/10/18 02:24:07;;;;;;;28.63;19.60;;;7.80;99.90;;;;;;5084931;28;20020;-65
2023/10/18 02:26:33;;;;;;;28.98;20.10;;;7.80;99.90;;;;;;5085107;28;20027;-65
2023/10/18 02:28:59;;;;;;;28.80;19.92;;;7.80;99.90;;;;;;5083203;28;20031;-65
2023/10/18 02:31:28;;;;;;;28.70;19.55;;;7.80;99.90;;;;;;5084551;28;20028;-65
2023/10/18 02:33:55;;;;;;;27.25;18.88;;;7.80;99.90;;;;;;5100145;28;20036;-64
2023/10/18 02:36:32;;;;;;;28.63;18.65;;;7.80;99.90;;;;;;5084450;28;20044;-65
2023/10/18 02:38:58;;;;;;;25.10;18.33;;;7.80;99.90;;;;;;5105240;28;20012;-64
2023/10/18 02:41:26;;;;;;;29.42;20.00;;;7.80;99.90;;;;;;5104744;28;20028;-64
2023/10/18 02:43:54;;;;;;;27.23;18.02;;;7.80;99.90;;;;;;5102560;28;20050;-66
2023/10/18 02:46:23;;;;;;;27.17;17.83;;;7.90;99.90;;;;;;5084019;28;20032;-66
2023/10/18 02:48:52;;;;;;;27.33;18.65;;;7.80;99.90;;;;;;5103305;28;20024;-64
2023/10/18 02:51:22;;;;;;;28.13;18.98;;;7.80;99.90;;;;;;5104700;28;20024;-65
2023/10/18 02:53:49;;;;;;;33.38;23.13;;;7.80;99.90;;;;;;5104249;28;20028;-64
2023/10/18 02:56:20;;;;;;;25.83;18.63;;;7.90;99.90;;;;;;5104837;28;20032;-64
2023/10/18 02:58:46;;;;;;;26.73;18.42;;;7.90;99.90;;;;;;5101746;28;20106;-64
2023/10/18 03:01:18;;;;;;;25.42;17.95;;;7.90;99.90;;;;;;5104561;28;20491;-64
2023/10/18 03:03:46;;;;;;;25.67;17.65;;;7.90;99.90;;;;;;5101787;28;20065;-65
2023/10/18 03:06:16;;;;;;;26.95;17.83;;;7.90;99.90;;;;;;5102794;28;20039;-64
2023/10/18 03:08:42;;;;;;;25.52;17.33;;;7.90;99.90;;;;;;5105561;28;20503;-64
2023/10/18 03:11:11;;;;;;;27.60;16.98;;;7.90;99.90;;;;;;5107069;28;20038;-64
2023/10/18 03:13:37;;;;;;;26.60;17.42;;;7.90;99.90;;;;;;5100898;28;20471;-64
2023/10/18 03:16:15;;;;;;;27.65;16.25;;;7.90;99.90;;;;;;5100740;28;20395;-65
2023/10/18 03:18:44;;;;;;;25.58;17.27;;;7.90;99.90;;;;;;5100237;28;20031;-64
2023/10/18 03:21:32;;;;;;;26.60;17.35;;;7.90;99.90;;;;;;5106136;28;20035;-64
2023/10/18 03:23:57;;;;;;;26.08;16.42;;;7.90;99.90;;;;;;5103419;28;20020;-64
2023/10/18 03:26:33;;;;;;;24.48;16.30;;;7.90;99.90;;;;;;5104913;28;20471;-64
2023/10/18 03:29:04;;;;;;;24.38;17.05;;;8.00;99.90;;;;;;5103724;28;20019;-64
2023/10/18 03:31:35;;;;;;;26.08;16.10;;;7.90;99.90;;;;;;5107598;28;20027;-65
2023/10/18 03:34:08;;;;;;;26.67;17.13;;;8.00;99.90;;;;;;5110246;28;20039;-65
2023/10/18 03:36:35;;;;;;;25.70;16.67;;;8.00;99.90;;;;;;5110298;28;20039;-65
2023/10/18 03:39:10;;;;;;;23.65;15.98;;;8.00;99.90;;;;;;5113613;28;20020;-65
2023/10/18 03:41:40;;;;;;;22.60;15.43;;;8.00;99.90;;;;;;5107251;28;20030;-65
2023/10/18 03:44:06;;;;;;;26.02;16.17;;;8.00;99.90;;;;;;5103676;28;20028;-65
2023/10/18 03:46:48;;;;;;;29.30;16.63;;;8.00;99.90;;;;;;5104606;28;20035;-64
2023/10/18 03:49:33;;;;;;;29.00;15.80;;;8.00;99.90;;;;;;5099477;28;20039;-65
2023/10/18 03:52:17;;;;;;;23.27;15.63;;;8.00;99.90;;;;;;5093129;28;20044;-65
2023/10/18 03:54:44;;;;;;;30.92;17.23;;;8.00;99.90;;;;;;5113479;28;20115;-65
2023/10/18 03:57:16;;;;;;;25.48;16.27;;;8.00;99.90;;;;;;5113063;28;20023;-65
2023/10/18 03:59:45;;;;;;;25.38;17.15;;;8.00;99.90;;;;;;5105643;28;20051;-65
2023/10/18 04:02:26;;;;;;;24.58;16.17;;;8.00;99.90;;;;;;5102355;28;20080;-65
2023/10/18 04:04:59;;;;;;;26.85;17.20;;;8.00;99.90;;;;;;5106470;28;20047;-65
2023/10/18 04:07:26;;;;;;;25.92;15.90;;;8.00;99.90;;;;;;5081993;28;20028;-64
2023/10/18 04:10:06;;;;;;;25.48;16.88;;;8.00;99.90;;;;;;5090174;28;20509;-64
2023/10/18 04:12:32;;;;;;;27.20;16.88;;;7.90;99.90;;;;;;5104713;28;20068;-65
2023/10/18 04:14:58;;;;;;;30.48;17.55;;;8.00;99.90;;;;;;5104800;28;20066;-65
2023/10/18 04:22:46;;;;;;;25.88;16.90;;;7.90;99.90;;;;;;5100033;28;20031;-65
2023/10/18 04:25:25;;;;;;;25.50;15.88;;;7.90;99.90;;;;;;5104892;28;20024;-65
2023/10/18 04:27:54;;;;;;;25.23;16.65;;;7.90;99.90;;;;;;5088752;28;20118;-65
2023/10/18 04:30:22;;;;;;;25.38;16.58;;;8.00;99.90;;;;;;5100452;28;20028;-65
2023/10/18 04:32:53;;;;;;;26.58;16.33;;;7.90;99.90;;;;;;5108624;28;20027;-65
2023/10/18 04:35:25;;;;;;;25.63;16.63;;;8.00;99.90;;;;;;5090644;28;20038;-65
2023/10/18 04:37:54;;;;;;;26.42;16.70;;;8.00;99.90;;;;;;5105997;28;20028;-65
2023/10/18 04:40:25;;;;;;;25.10;16.65;;;8.00;99.90;;;;;;5100523;28;20023;-65
2023/10/18 04:42:51;;;;;;;27.60;17.40;;;8.00;99.90;;;;;;5103270;28;20165;-65
2023/10/18 04:45:17;;;;;;;28.10;18.08;;;8.00;99.90;;;;;;5102233;28;20034;-65
2023/10/18 04:47:42;;;;;;;26.25;17.08;;;7.90;99.90;;;;;;5112711;28;20024;-65
2023/10/18 04:50:11;;;;;;;28.52;17.95;;;8.00;99.90;;;;;;5112838;28;20032;-65
2023/10/18 04:52:43;;;;;;;28.10;17.90;;;8.00;99.90;;;;;;5112565;28;20043;-65
2023/10/18 04:55:12;;;;;;;29.83;19.10;;;8.00;99.90;;;;;;5096029;28;20016;-65
2023/10/18 04:57:41;;;;;;;27.45;17.85;;;8.00;99.90;;;;;;5105842;28;20044;-65
2023/10/18 05:00:24;;;;;;;26.50;18.58;;;8.00;99.90;;;;;;5101831;28;20413;-64
2023/10/18 05:02:58;;;;;;;29.23;18.08;;;8.00;99.90;;;;;;5098131;28;20028;-65
2023/10/18 05:05:26;;;;;;;57.60;21.23;;;8.00;99.90;;;;;;5108209;28;20039;-65
2023/10/18 05:07:54;;;;;;;33.40;19.13;;;8.00;99.90;;;;;;5098120;28;20360;-65
2023/10/18 05:10:21;;;;;;;34.80;19.35;;;7.90;99.90;;;;;;5103867;28;20016;-65
2023/10/18 05:12:53;;;;;;;28.92;19.52;;;7.90;99.90;;;;;;5102869;28;20572;-65
2023/10/18 05:15:29;;;;;;;31.13;19.05;;;7.90;99.90;;;;;;5103897;28;20024;-65
2023/10/18 05:18:15;;;;;;;29.80;17.92;;;7.90;99.90;;;;;;5109801;28;20112;-65
2023/10/18 05:20:46;;;;;;;28.30;18.33;;;7.90;99.90;;;;;;5112489;28;20463;-65
2023/10/18 05:23:32;;;;;;;;;;;7.90;99.90;;;;;;5103671;28;20515;-65
2023/10/18 05:28:46;;;;;;;29.42;18.73;;;7.90;99.90;;;;;;5106247;28;20036;-65
2023/10/18 05:34:04;;;;;;;27.67;17.33;;;7.90;99.90;;;;;;5096352;28;20073;-65
2023/10/18 05:36:54;;;;;;;33.13;17.98;;;7.80;99.90;;;;;;5111396;28;20127;-65
2023/10/18 05:41:59;;;;;;;26.95;18.05;;;7.80;99.90;;;;;;5107792;28;20123;-65
2023/10/18 05:44:28;;;;;;;30.75;18.30;;;7.80;99.90;;;;;;5109045;28;20040;-65
2023/10/18 05:46:54;;;;;;;29.83;17.98;;;7.80;99.90;;;;;;5105767;28;20028;-65
2023/10/18 05:49:28;;;;;;;28.98;17.70;;;7.80;99.90;;;;;;5109831;28;20115;-65
2023/10/18 05:54:37;;;;;;;28.45;17.13;;;7.80;99.90;;;;;;5103086;28;20405;-65
2023/10/18 05:57:05;;;;;;;28.48;17.83;;;7.80;99.90;;;;;;5102200;28;20032;-64
2023/10/18 06:02:10;;;;;;;34.20;20.55;;;7.80;99.90;;;;;;5104394;28;20023;-64
2023/10/18 06:04:42;;;;;;;31.55;18.27;;;7.80;99.90;;;;;;5097495;28;20036;-64
2023/10/18 06:07:12;;;;;;;26.92;17.77;;;7.80;99.90;;;;;;5105519;28;20070;-64
2023/10/18 06:12:23;;;;;;;26.40;16.42;;;7.80;99.90;;;;;;5098545;28;20077;-65
2023/10/18 06:14:52;;;;;;;24.33;15.90;;;7.80;99.90;;;;;;5111533;28;20463;-64
2023/10/18 06:17:19;;;;;;;25.77;16.95;;;7.90;99.90;;;;;;5083782;28;20048;-65
2023/10/18 06:19:47;;;;;;;26.25;15.90;;;7.90;99.90;;;;;;5086128;28;20126;-65
2023/10/18 06:22:15;;;;;;;25.17;15.98;;;7.80;99.90;;;;;;5090753;28;20027;-64
2023/10/18 06:24:43;;;;;;;27.65;15.85;;;7.90;99.90;;;;;;5110339;28;20246;-64
2023/10/18 06:27:15;;;;;;;25.45;15.30;;;7.90;99.90;;;;;;5089015;28;20039;-64
2023/10/18 06:29:42;;;;;;;23.60;14.75;;;7.90;99.90;;;;;;5086893;28;20212;-64
2023/10/18 06:32:10;;;;;;;23.50;13.93;;;8.00;99.90;;;;;;5085478;28;20486;-65
2023/10/18 06:34:36;;;;;;;22.63;14.18;;;8.00;99.90;;;;;;5088334;28;20028;-64
2023/10/18 06:37:07;;;;;;;22.40;13.30;;;8.00;99.90;;;;;;5110678;28;20120;-65
2023/10/18 06:39:37;;;;;;;24.98;14.93;;;8.00;99.90;;;;;;5100204;28;20089;-64
2023/10/18 06:42:12;;;;;;;21.95;12.88;;;8.10;99.90;;;;;;5103731;28;20047;-65
2023/10/18 06:44:42;;;;;;;22.10;13.77;;;8.10;99.90;;;;;;5093123;28;20035;-64
2023/10/18 06:47:13;;;;;;;22.70;12.95;;;8.20;99.90;;;;;;5111314;28;20031;-64
2023/10/18 06:49:42;;;;;;;24.13;13.40;;;8.20;99.90;;;;;;5096047;28;20023;-65
2023/10/18 06:52:09;;;;;;;23.15;13.32;;;8.20;99.90;;;;;;5102413;28;20044;-65
2023/10/18 06:54:38;;;;;;;25.55;13.82;;;8.30;99.90;;;;;;5108709;28;20069;-64
2023/10/18 06:57:18;;;;;;;22.35;13.00;;;8.30;99.90;;;;;;5097363;28;20044;-65
2023/10/18 06:59:48;;;;;;;21.88;12.90;;;8.40;99.90;;;;;;5107094;28;20420;-65
2023/10/18 07:02:14;;;;;;;22.10;12.82;;;8.40;99.90;;;;;;5091974;28;20027;-64
2023/10/18 07:04:50;;;;;;;22.38;11.93;;;8.50;99.90;;;;;;5101239;28;20050;-64
2023/10/18 07:07:22;;;;;;;19.70;12.13;;;8.60;99.90;;;;;;5113538;28;20027;-65
2023/10/18 07:09:56;;;;;;;20.67;10.88;;;8.60;99.90;;;;;;5103804;28;20043;-64
2023/10/18 07:12:28;;;;;;;23.10;11.82;;;8.70;99.90;;;;;;5101655;28;20483;-64
2023/10/18 07:15:09;;;;;;;21.15;11.98;;;8.80;99.90;;;;;;5103469;28;20028;-65
2023/10/18 07:17:37;;;;;;;20.23;10.83;;;8.80;99.90;;;;;;5078957;28;20094;-64
2023/10/18 07:20:03;;;;;;;22.40;12.75;;;8.90;99.90;;;;;;5092976;28;20020;-65
2023/10/18 07:22:49;;;;;;;20.30;11.73;;;9.00;99.90;;;;;;5100433;28;20019;-65
2023/10/18 07:25:20;;;;;;;18.08;10.80;;;9.00;99.90;;;;;;5096834;28;20024;-64
2023/10/18 07:27:46;;;;;;;18.13;10.87;;;9.10;99.90;;;;;;5113239;28;20096;-65
2023/10/18 07:30:15;;;;;;;20.80;10.88;;;9.20;99.90;;;;;;5102352;28;20437;-65
2023/10/18 07:32:42;;;;;;;19.70;11.13;;;9.30;99.90;;;;;;5107615;28;20026;-65
2023/10/18 07:35:11;;;;;;;18.73;10.57;;;9.30;99.90;;;;;;5100595;28;20028;-65
2023/10/18 07:37:41;;;;;;;19.05;10.57;;;9.50;99.90;;;;;;5113208;28;20043;-65
2023/10/18 07:40:09;;;;;;;20.42;10.95;;;9.50;99.90;;;;;;5101610;28;20038;-64
2023/10/18 07:42:35;;;;;;;18.02;10.57;;;9.60;99.90;;;;;;5107480;28;20030;-65
2023/10/18 07:45:04;;;;;;;21.48;11.63;;;9.70;99.90;;;;;;5095678;28;20028;-64
2023/10/18 07:47:32;;;;;;;18.00;11.20;;;9.80;99.90;;;;;;5108394;28;20448;-63
2023/10/18 07:50:00;;;;;;;19.63;11.25;;;9.90;99.90;;;;;;5102811;28;20463;-65
2023/10/18 07:52:26;;;;;;;18.92;10.65;;;9.90;99.90;;;;;;5100045;28;20056;-64
2023/10/18 07:54:51;;;;;;;16.77;10.13;;;10.10;99.90;;;;;;5109848;28;20020;-65
2023/10/18 07:57:17;;;;;;;17.13;10.15;;;10.20;99.90;;;;;;5095165;28;20055;-65
2023/10/18 07:59:46;;;;;;;17.88;9.88;;;10.30;99.90;;;;;;5105829;28;20080;-65
2023/10/18 08:04:45;;;;;;;17.92;9.55;;;10.40;99.90;;;;;;5097776;28;20356;-65
2023/10/18 08:07:15;;;;;;;16.00;9.90;;;10.50;99.90;;;;;;5109277;28;20386;-65
2023/10/18 08:09:44;;;;;;;17.10;8.95;;;10.60;99.90;;;;;;5099978;28;20030;-66
2023/10/18 08:12:28;;;;;;;17.58;9.43;;;10.70;99.90;;;;;;5102381;28;20099;-65
2023/10/18 08:14:54;;;;;;;15.82;9.07;;;10.70;99.90;;;;;;5109913;28;20031;-65
2023/10/18 08:17:29;;;;;;;15.20;8.45;;;10.80;99.90;;;;;;5096947;28;20071;-66
2023/10/18 08:22:44;;;;;;;16.70;8.82;;;11.00;99.90;;;;;;5108196;28;20031;-65
2023/10/18 08:25:21;;;;;;;18.35;9.80;;;11.10;99.90;;;;;;5095984;28;20024;-65
2023/10/18 08:27:48;;;;;;;16.88;8.93;;;11.30;99.90;;;;;;5105330;28;20503;-64
2023/10/18 08:30:23;;;;;;;16.27;9.52;;;11.50;99.90;;;;;;5104156;28;20031;-64
2023/10/18 08:32:50;;;;;;;17.35;8.63;;;11.60;99.90;;;;;;5096420;28;20128;-65
2023/10/18 08:35:19;;;;;;;16.02;8.48;;;11.80;99.90;;;;;;5079230;28;20028;-65
2023/10/18 08:37:45;;;;;;;17.25;9.57;;;11.90;99.90;;;;;;5105351;28;20036;-65
2023/10/18 08:40:16;;;;;;;16.50;8.95;;;12.10;99.90;;;;;;5103645;28;20030;-65
2023/10/18 08:42:49;;;;;;;15.93;9.20;;;12.30;99.90;;;;;;5097489;28;20056;-64
2023/10/18 08:45:19;;;;;;;16.13;8.38;;;12.60;99.90;;;;;;5109346;28;20054;-63
2023/10/18 08:47:49;;;;;;;15.05;8.18;;;13.00;99.90;;;;;;5109151;28;20483;-65
2023/10/18 08:50:17;;;;;;;16.48;8.77;;;13.10;99.90;;;;;;5112634;28;20035;-64
2023/10/18 08:52:47;;;;;;;15.57;8.25;;;13.30;99.90;;;;;;5096552;28;20071;-65
2023/10/18 08:55:22;;;;;;;15.43;8.80;;;13.40;99.90;;;;;;5109171;28;20028;-64
2023/10/18 08:57:48;;;;;;;14.30;8.20;;;13.50;99.90;;;;;;5100962;28;20035;-64
2023/10/18 09:02:51;;;;;;;13.25;7.78;;;13.60;99.90;;;;;;5109618;28;20034;-65
2023/10/18 09:05:22;;;;;;;14.02;8.07;;;13.60;99.90;;;;;;5098515;28;20387;-65
2023/10/18 09:08:03;;;;;;;14.48;7.63;;;13.70;99.90;;;;;;5105166;28;20050;-65
2023/10/18 09:10:43;;;;;;;13.27;7.40;;;13.70;99.90;;;;;;5106921;28;20119;-65
2023/10/18 09:15:54;;;;;;;12.77;7.28;;;13.70;99.90;;;;;;5110205;28;20028;-65
2023/10/18 09:18:21;;;;;;;13.68;6.97;;;13.80;99.90;;;;;;5109345;28;20070;-66
2023/10/18 09:20:48;;;;;;;15.07;7.63;;;13.80;99.90;;;;;;5100542;28;20447;-65
2023/10/18 09:23:20;;;;;;;11.35;6.72;;;13.90;99.90;;;;;;5113170;28;20099;-65
2023/10/18 09:25:49;;;;;;;12.55;7.05;;;13.90;99.90;;;;;;5104177;28;20038;-65
2023/10/18 09:28:25;;;;;;;10.63;6.55;;;14.00;99.90;;;;;;5105079;28;20058;-65
2023/10/18 09:31:13;;;;;;;11.95;6.38;;;14.10;99.90;;;;;;5113427;28;20019;-65
2023/10/18 09:33:52;;;;;;;11.63;6.53;;;14.30;99.90;;;;;;5089633;28;20019;-65
2023/10/18 09:36:19;;;;;;;12.07;6.65;;;14.40;99.90;;;;;;5104424;28;20032;-65
2023/10/18 09:38:48;;;;;;;11.20;6.57;;;14.60;99.90;;;;;;5088427;28;20050;-65
2023/10/18 09:41:15;;;;;;;13.52;6.85;;;14.70;99.90;;;;;;5116423;28;20031;-65
2023/10/18 09:43:40;;;;;;;12.32;6.47;;;14.90;99.90;;;;;;5109905;28;20024;-65
2023/10/18 09:46:08;;;;;;;11.52;6.80;;;15.00;99.70;;;;;;5106767;28;20443;-65
2023/10/18 09:48:38;;;;;;;14.65;7.20;;;15.20;99.90;;;;;;5102188;27;20461;-65
2023/10/18 09:51:09;;;;;;;9.32;6.35;;;15.30;99.30;;;;;;5112519;28;20031;-66
2023/10/18 09:53:48;;;;;;;13.27;7.03;;;15.30;99.30;;;;;;5101997;28;20049;-65
2023/10/18 09:56:27;;;;;;;13.30;7.10;;;15.40;99.30;;;;;;5104823;28;20043;-65
2023/10/18 09:59:07;;;;;;;12.50;6.90;;;15.40;99.30;;;;;;5112787;28;20103;-65
2023/10/18 10:04:13;;;;;;;15.13;7.32;;;15.20;99.20;;;;;;5105740;28;20026;-66
2023/10/18 10:07:41;;;;;;;11.40;7.00;;;15.10;99.60;;;;;;5111285;28;20023;-64
2023/10/18 10:09:38;;;;;;;9.73;6.45;;;15.10;99.80;;;;;;5087012;28;20040;-64
2023/10/18 10:12:11;;;;;;;14.13;7.50;;;15.40;99.70;;;;;;5105695;28;20016;-64
2023/10/18 10:14:37;;;;;;;14.95;7.03;;;15.60;99.50;;;;;;5109009;28;20356;-67
2023/10/18 10:17:08;;;;;;;15.15;7.55;;;15.90;99.00;;;;;;5090016;28;20064;-65
2023/10/18 10:19:44;;;;;;;11.18;7.10;;;16.20;98.70;;;;;;5100345;28;20500;-65
2023/10/18 10:22:12;;;;;;;11.23;6.68;;;16.30;97.80;;;;;;5087727;28;20029;-65
2023/10/18 10:24:50;;;;;;;11.70;6.88;;;16.30;98.30;;;;;;5087545;28;20029;-66
2023/10/18 10:27:27;;;;;;;11.70;6.88;;;16.40;98.60;;;;;;5099645;28;20443;-65
2023/10/18 10:30:19;;;;;;;13.40;7.20;;;16.50;98.30;;;;;;5090718;28;20037;-65
2023/10/18 10:32:50;;;;;;;13.23;7.43;;;16.50;98.40;;;;;;5086086;28;20025;-66
2023/10/18 10:35:24;;;;;;;14.15;7.53;;;16.60;98.70;;;;;;5083850;28;20036;-64
2023/10/18 10:37:50;;;;;;;14.07;7.60;;;16.70;98.10;;;;;;5084172;28;20036;-65
2023/10/18 10:41:19;;;;;;;14.95;8.20;;;16.60;98.10;;;;;;5085674;28;20073;-65
2023/10/18 10:43:14;;;;;;;11.50;6.82;;;16.80;98.40;;;;;;5081088;28;20123;-66
2023/10/18 10:48:18;;;;;;;13.57;7.40;;;17.00;98.00;;;;;;5085927;28;20020;-66
2023/10/18 10:50:45;;;;;;;12.85;7.30;;;17.10;98.20;;;;;;5095038;28;20016;-65
2023/10/18 10:53:28;;;;;;;13.40;6.97;;;17.20;97.50;;;;;;5086383;28;20070;-65
2023/10/18 10:55:54;;;;;;;13.50;7.03;;;17.10;97.20;;;;;;5085683;28;20024;-65
2023/10/18 10:58:22;;;;;;;12.15;6.60;;;17.10;97.20;;;;;;5088301;28;20033;-65
2023/10/18 11:01:03;;;;;;;13.93;7.20;;;17.20;97.50;;;;;;5085170;28;20020;-66
2023/10/18 11:03:31;;;;;;;12.63;6.85;;;17.40;97.60;;;;;;5086978;28;20024;-65
2023/10/18 11:06:05;;;;;;;10.60;6.43;;;17.60;97.30;;;;;;5085273;28;20016;-65
2023/10/18 11:08:36;;;;;;;10.77;6.78;;;17.90;97.00;;;;;;5084967;28;20126;-65
2023/10/18 11:11:06;;;;;;;13.75;6.32;;;18.00;96.50;;;;;;5083903;28;20028;-65
2023/10/18 11:13:31;;;;;;;9.93;6.05;;;17.90;96.70;;;;;;5081822;28;20489;-64
2023/10/18 11:16:00;;;;;;;12.70;7.05;;;17.80;96.70;;;;;;5085130;28;20111;-65
2023/10/18 11:18:34;;;;;;;10.43;6.03;;;17.70;96.60;;;;;;5084674;28;20350;-65
2023/10/18 11:21:12;;;;;;;12.30;6.45;;;17.50;96.80;;;;;;5085344;28;20024;-66
2023/10/18 11:23:38;;;;;;;10.07;6.13;;;17.30;96.90;;;;;;5085806;28;20066;-67
2023/10/18 11:26:09;;;;;;;10.65;6.32;;;17.20;97.40;;;;;;5084183;28;20475;-65
2023/10/18 11:28:37;;;;;;;11.98;6.57;;;17.20;97.80;;;;;;5085328;28;20455;-66
2023/10/18 11:31:04;;;;;;;12.43;6.18;;;17.20;97.50;;;;;;5084105;28;20025;-66
2023/10/18 11:33:56;;;;;;;11.80;6.30;;;17.10;97.40;;;;;;5082962;28;20028;-66
2023/10/18 11:36:22;;;;;;;12.20;6.80;;;17.00;97.60;;;;;;5090438;28;20043;-66
2023/10/18 11:41:36;;;;;;;11.73;7.15;;;16.90;97.50;;;;;;5086120;28;20081;-65
2023/10/18 11:44:06;;;;;;;11.35;6.50;;;16.90;97.60;;;;;;5082642;28;20379;-65
2023/10/18 11:46:56;;;;;;;11.75;6.15;;;17.00;98.00;;;;;;5086784;28;20067;-64
2023/10/18 11:49:33;;;;;;;13.45;6.93;;;17.20;97.60;;;;;;5083118;28;20539;-65
2023/10/18 11:51:59;;;;;;;12.15;6.30;;;17.40;97.50;;;;;;5099444;28;20051;-66
2023/10/18 11:54:35;;;;;;;12.05;6.45;;;17.60;97.50;;;;;;5089212;28;20020;-65
2023/10/18 11:57:06;;;;;;;11.73;6.70;;;17.60;97.10;;;;;;5085907;28;20126;-66
2023/10/18 12:02:43;;;;;;;12.70;6.57;;;17.50;97.10;;;;;;5083005;28;20546;-66
2023/10/18 12:05:10;;;;;;;11.20;6.35;;;17.50;97.30;;;;;;5082626;28;20069;-67
2023/10/18 12:07:44;;;;;;;10.23;6.22;;;17.40;97.70;;;;;;5084475;28;20481;-65
2023/10/18 12:10:25;;;;;;;10.27;6.15;;;17.50;97.50;;;;;;5084283;28;20017;-65
2023/10/18 12:12:52;;;;;;;10.90;6.23;;;17.50;97.40;;;;;;5086659;28;20100;-66
2023/10/18 12:15:19;;;;;;;12.90;5.82;;;17.50;97.60;;;;;;5082292;28;20495;-66
2023/10/18 12:17:46;;;;;;;12.50;5.95;;;17.70;97.20;;;;;;5082825;28;20471;-66
2023/10/18 12:20:12;;;;;;;11.15;5.57;;;17.90;97.50;;;;;;5083997;28;20027;-66
2023/10/18 12:22:42;;;;;;;9.80;5.70;;;18.10;97.10;;;;;;5081913;28;20426;-65
2023/10/18 12:25:08;;;;;;;11.27;6.00;;;18.30;96.80;;;;;;5082648;28;20097;-65
2023/10/18 12:27:34;;;;;;;12.43;5.82;;;18.40;96.70;;;;;;5083871;28;20024;-66
2023/10/18 12:30:26;;;;;;;14.65;6.00;;;18.40;96.50;;;;;;5082317;28;20027;-66
2023/10/18 12:32:52;;;;;;;8.73;5.68;;;18.50;96.60;;;;;;5084396;28;20472;-64
2023/10/18 12:35:20;;;;;;;13.95;6.57;;;18.70;96.70;;;;;;5081737;28;20027;-66
2023/10/18 12:37:54;;;;;;;10.23;5.78;;;18.70;96.40;;;;;;5082643;28;20028;-65
2023/10/18 12:40:40;;;;;;;9.93;5.88;;;18.80;96.20;;;;;;5089514;28;20384;-65
2023/10/18 12:43:17;;;;;;;11.07;5.78;;;18.70;96.10;;;;;;5085935;28;20077;-66
2023/10/18 12:45:47;;;;;;;10.57;5.70;;;18.50;96.20;;;;;;5085576;28;20028;-65
2023/10/18 12:48:14;;;;;;;11.93;5.53;;;18.30;96.40;;;;;;5084608;28;20012;-65
2023/10/18 12:50:45;;;;;;;11.93;5.72;;;18.20;96.70;;;;;;5090874;28;20019;-65
2023/10/18 12:55:59;;;;;;;13.60;6.43;;;17.70;97.10;;;;;;5092437;28;20356;-65
2023/10/18 12:58:32;;;;;;;12.02;5.78;;;17.60;97.60;;;;;;5087591;28;20021;-65
2023/10/18 13:01:06;;;;;;;12.02;6.13;;;17.60;97.80;;;;;;5084744;28;20465;-65
2023/10/18 13:03:38;;;;;;;10.60;6.10;;;17.60;97.80;;;;;;5086668;28;20074;-65
2023/10/18 13:06:15;;;;;;;13.05;6.15;;;17.50;97.50;;;;;;5097245;28;20028;-66
2023/10/18 13:08:54;;;;;;;9.85;5.20;;;17.40;97.90;;;;;;5092557;28;20046;-66
2023/10/18 13:14:23;;;;;;;15.85;6.10;;;17.30;98.00;;;;;;5097458;28;20031;-66
2023/10/18 13:16:49;;;;;;;10.02;4.97;;;17.30;98.30;;;;;;5097426;28;20035;-65
2023/10/18 13:19:15;;;;;;;11.88;6.15;;;17.20;98.40;;;;;;5096848;28;20024;-65
2023/10/18 13:21:43;;;;;;;11.27;5.57;;;17.20;98.50;;;;;;5096323;28;20024;-66
2023/10/18 13:24:28;;;;;;;11.63;6.40;;;17.20;98.60;;;;;;5096978;28;20055;-67
2023/10/18 13:26:59;;;;;;;12.30;6.38;;;17.10;98.20;;;;;;5096785;28;20051;-66
2023/10/18 13:31:52;;;;;;;14.32;6.40;;;16.90;98.50;;;;;;5096689;28;20489;-66
2023/10/18 13:34:18;;;;;;;12.20;6.25;;;16.80;98.40;;;;;;5096519;28;20039;-66
2023/10/18 13:36:54;;;;;;;11.18;6.50;;;16.70;98.70;;;;;;5096808;28;20461;-65
2023/10/18 13:39:22;;;;;;;13.57;6.30;;;16.60;99.10;;;;;;5096975;28;20118;-66
2023/10/18 13:41:49;;;;;;;12.02;6.43;;;16.60;99.20;;;;;;5096748;28;20024;-66
2023/10/18 13:44:19;;;;;;;11.02;6.13;;;16.50;99.40;;;;;;5096723;28;20459;-66
2023/10/18 13:46:55;;;;;;;13.35;6.28;;;16.40;99.80;;;;;;5113780;28;20031;-66
2023/10/18 13:49:23;;;;;;;11.57;6.18;;;16.30;99.70;;;;;;5117237;28;20031;-65